createdAt,value
2022-08-26T00:02:01.712Z,82.87
2022-08-26T00:04:32.055Z,82.89
2022-08-26T00:07:00.820Z,82.87
2022-08-26T00:09:29.617Z,82.96
2022-08-26T00:11:58.421Z,82.79
2022-08-26T00:14:30.991Z,82.54
2022-08-26T00:17:00.590Z,82.54
2022-08-26T00:19:29.691Z,82.33
2022-08-26T00:21:58.328Z,82.36
2022-08-26T00:24:27.031Z,82.27
2022-08-26T00:26:55.776Z,82.05
2022-08-26T00:29:24.546Z,81.93
2022-08-26T00:31:54.851Z,81.76
2022-08-26T00:34:23.655Z,81.65
2022-08-26T00:36:52.435Z,81.75
2022-08-26T00:39:21.751Z,82.03
2022-08-26T00:41:50.691Z,81.97
2022-08-26T00:44:19.729Z,81.92
2022-08-26T00:46:56.516Z,81.99
2022-08-26T00:49:40.192Z,81.20
2022-08-26T00:52:16.519Z,81.03
2022-08-26T00:54:54.473Z,80.82
2022-08-26T00:57:25.540Z,80.70
2022-08-26T01:00:00.498Z,80.39
2022-08-26T01:02:31.020Z,80.58
2022-08-26T01:05:06.656Z,80.31
2022-08-26T01:07:37.075Z,80.52
2022-08-26T01:10:12.461Z,80.31
2022-08-26T01:12:47.673Z,80.37
2022-08-26T01:15:24.196Z,80.34
2022-08-26T01:17:54.383Z,80.35
2022-08-26T01:20:47.366Z,80.60
2022-08-26T01:23:17.673Z,80.58
2022-08-26T01:25:57.836Z,80.57
2022-08-26T01:28:32.571Z,80.57
2022-08-26T01:31:25.962Z,80.73
2022-08-26T01:34:02.971Z,80.67
2022-08-26T01:36:32.697Z,80.63
2022-08-26T01:39:02.848Z,80.61
2022-08-26T01:41:36.586Z,80.72
2022-08-26T01:44:10.122Z,80.70
2022-08-26T01:46:39.104Z,80.66
2022-08-26T01:49:09.968Z,80.84
2022-08-26T01:51:44.525Z,80.95
2022-08-26T01:54:15.170Z,80.89
2022-08-26T01:56:44.462Z,80.74
2022-08-26T01:59:18.914Z,80.75
2022-08-26T02:01:48.516Z,81.08
2022-08-26T02:04:26.851Z,81.25
2022-08-26T02:06:57.715Z,81.15
2022-08-26T02:09:29.270Z,81.14
2022-08-26T02:12:02.559Z,81.20
2022-08-26T02:14:43.570Z,81.19
2022-08-26T02:17:13.642Z,81.31
2022-08-26T02:19:48.646Z,81.20
2022-08-26T02:22:22.156Z,81.34
2022-08-26T02:24:57.857Z,81.31
2022-08-26T02:27:32.029Z,81.00
2022-08-26T02:30:10.587Z,81.01
2022-08-26T02:32:41.357Z,81.51
2022-08-26T02:35:12.645Z,81.06
2022-08-26T02:37:41.842Z,81.00
2022-08-26T02:40:16.573Z,81.12
2022-08-26T02:42:45.278Z,81.16
2022-08-26T02:45:14.257Z,81.55
2022-08-26T02:47:46.153Z,81.36
2022-08-26T02:50:15.564Z,81.41
2022-08-26T02:52:45.468Z,80.95
2022-08-26T02:55:16.625Z,81.00
2022-08-26T02:57:45.382Z,81.08
2022-08-26T03:00:16.128Z,81.01
2022-08-26T03:02:45.202Z,81.11
2022-08-26T03:05:14.515Z,80.92
2022-08-26T03:07:45.229Z,80.65
2022-08-26T03:10:16.522Z,80.66
2022-08-26T03:12:47.383Z,80.76
2022-08-26T03:15:19.596Z,80.92
2022-08-26T03:17:50.243Z,80.80
2022-08-26T03:20:20.137Z,80.66
2022-08-26T03:22:51.563Z,80.97
2022-08-26T03:25:22.643Z,81.36
2022-08-26T03:27:52.539Z,81.39
2022-08-26T03:30:44.633Z,81.19
2022-08-26T03:33:15.382Z,81.04
2022-08-26T03:35:47.848Z,81.10
2022-08-26T03:38:20.545Z,81.03
2022-08-26T03:40:51.169Z,81.14
2022-08-26T03:43:22.481Z,80.94
2022-08-26T03:45:51.612Z,80.92
2022-08-26T03:48:21.414Z,80.95
2022-08-26T03:50:50.512Z,80.95
2022-08-26T03:53:20.623Z,80.97
2022-08-26T03:55:51.979Z,80.98
2022-08-26T03:58:21.231Z,80.99
2022-08-26T04:00:55.601Z,80.97
2022-08-26T04:03:38.955Z,80.96
2022-08-26T04:06:08.575Z,81.01
2022-08-26T04:08:38.821Z,81.07
2022-08-26T04:11:10.601Z,80.96
2022-08-26T04:13:39.351Z,81.02
2022-08-26T04:16:08.834Z,81.03
2022-08-26T04:18:40.591Z,81.03
2022-08-26T04:21:15.912Z,80.86
2022-08-26T04:23:47.166Z,80.93
2022-08-26T04:26:18.203Z,81.01
2022-08-26T04:28:47.340Z,81.07
2022-08-26T04:31:18.363Z,81.14
2022-08-26T04:33:51.441Z,80.88
2022-08-26T04:36:20.440Z,81.00
2022-08-26T04:38:50.749Z,80.90
2022-08-26T04:41:22.104Z,80.74
2022-08-26T04:43:51.104Z,80.69
2022-08-26T04:46:24.505Z,80.78
2022-08-26T04:48:55.219Z,80.62
2022-08-26T04:51:28.059Z,80.73
2022-08-26T04:53:57.701Z,80.67
2022-08-26T04:56:30.622Z,80.58
2022-08-26T04:58:59.489Z,80.61
2022-08-26T05:01:29.203Z,80.55
2022-08-26T05:03:58.254Z,80.53
2022-08-26T05:06:28.142Z,80.52
2022-08-26T05:08:56.951Z,80.27
2022-08-26T05:11:29.624Z,80.30
2022-08-26T05:14:02.139Z,80.56
2022-08-26T05:16:31.371Z,80.27
2022-08-26T05:19:00.330Z,80.08
2022-08-26T05:21:30.230Z,79.85
2022-08-26T05:23:59.056Z,79.95
2022-08-26T05:26:32.144Z,79.89
2022-08-26T05:29:00.852Z,79.92
2022-08-26T05:31:32.673Z,79.78
2022-08-26T05:34:03.736Z,79.55
2022-08-26T05:36:38.397Z,79.10
2022-08-26T05:39:10.382Z,79.47
2022-08-26T05:41:44.725Z,79.03
2022-08-26T05:44:18.842Z,78.70
2022-08-26T05:46:47.803Z,78.66
2022-08-26T05:49:17.077Z,78.23
2022-08-26T05:51:48.022Z,78.39
2022-08-26T05:54:21.986Z,78.06
2022-08-26T05:56:53.222Z,78.01
2022-08-26T05:59:24.593Z,78.09
2022-08-26T06:01:54.837Z,77.91
2022-08-26T06:04:28.112Z,77.50
2022-08-26T06:06:58.158Z,77.15
2022-08-26T06:09:27.475Z,77.29
2022-08-26T06:11:59.020Z,77.41
2022-08-26T06:14:27.964Z,77.51
2022-08-26T06:16:57.634Z,77.16
2022-08-26T06:19:32.765Z,77.23
2022-08-26T06:22:23.867Z,76.55
2022-08-26T06:25:10.020Z,76.91
2022-08-26T06:27:41.082Z,76.85
2022-08-26T06:30:11.534Z,76.11
2022-08-26T06:32:41.286Z,75.76
2022-08-26T06:35:11.956Z,75.61
2022-08-26T06:37:42.866Z,75.56
2022-08-26T06:40:12.859Z,75.40
2022-08-26T06:42:43.017Z,75.53
2022-08-26T06:45:12.732Z,75.39
2022-08-26T06:47:42.010Z,75.37
2022-08-26T06:50:11.541Z,75.13
2022-08-26T06:52:43.368Z,75.05
2022-08-26T06:55:12.052Z,75.37
2022-08-26T06:57:42.165Z,75.03
2022-08-26T07:00:12.859Z,74.89
2022-08-26T07:02:46.824Z,75.00
2022-08-26T07:05:16.422Z,74.66
2022-08-26T07:07:45.104Z,74.47
2022-08-26T07:10:14.971Z,74.31
2022-08-26T07:12:47.071Z,73.98
2022-08-26T07:15:17.108Z,73.85
2022-08-26T07:17:46.070Z,73.59
2022-08-26T07:20:15.263Z,73.20
2022-08-26T07:22:44.302Z,72.78
2022-08-26T07:25:13.265Z,72.47
2022-08-26T07:27:42.118Z,72.60
2022-08-26T07:30:14.786Z,72.86
2022-08-26T07:32:43.817Z,72.97
2022-08-26T07:35:12.525Z,72.44
2022-08-26T07:37:41.270Z,72.66
2022-08-26T07:40:15.287Z,72.09
2022-08-26T07:42:54.994Z,72.66
2022-08-26T07:45:28.697Z,72.08
2022-08-26T07:47:59.291Z,72.21
2022-08-26T07:50:50.206Z,72.09
2022-08-26T07:53:18.029Z,70.90
2022-08-26T07:55:48.530Z,70.83
2022-08-26T07:58:18.236Z,70.99
2022-08-26T08:00:49.065Z,71.98
2022-08-26T08:03:20.651Z,71.97
2022-08-26T08:05:49.516Z,71.83
2022-08-26T08:08:27.652Z,71.94
2022-08-26T08:10:58.594Z,70.26
2022-08-26T08:13:39.935Z,69.65
2022-08-26T08:16:12.765Z,69.31
2022-08-26T08:18:41.751Z,69.43
2022-08-26T08:21:21.097Z,69.12
2022-08-26T08:23:53.244Z,69.21
2022-08-26T08:26:25.383Z,69.65
2022-08-26T08:28:58.384Z,69.46
2022-08-26T08:34:24.709Z,69.81
2022-08-26T08:36:54.662Z,69.68
2022-08-26T08:39:24.374Z,69.46
2022-08-26T08:42:28.345Z,68.90
2022-08-26T08:45:04.455Z,68.57
2022-08-26T08:47:40.030Z,66.75
2022-08-26T08:50:27.455Z,67.03
2022-08-26T08:53:12.109Z,67.16
2022-08-26T08:55:54.541Z,67.44
2022-08-26T08:58:33.089Z,67.57
2022-08-26T09:01:07.149Z,67.24
2022-08-26T09:03:56.543Z,66.77
2022-08-26T09:06:27.766Z,67.00
2022-08-26T09:08:58.514Z,66.85
2022-08-26T09:11:31.633Z,66.70
2022-08-26T09:14:00.971Z,66.27
2022-08-26T09:16:41.524Z,66.49
2022-08-26T09:19:23.362Z,66.87
2022-08-26T09:21:57.823Z,66.75
2022-08-26T09:24:28.517Z,66.68
2022-08-26T09:26:59.421Z,66.93
2022-08-26T09:29:31.899Z,67.09
2022-08-26T09:32:22.177Z,66.44
2022-08-26T09:34:59.761Z,66.54
2022-08-26T09:40:29.455Z,66.36
2022-08-26T09:43:22.656Z,66.59
2022-08-26T09:45:59.501Z,66.47
2022-08-26T09:48:35.450Z,66.43
2022-08-26T09:51:28.079Z,65.62
2022-08-26T09:54:00.495Z,66.05
2022-08-26T09:56:33.273Z,66.20
2022-08-26T09:59:04.066Z,66.21
2022-08-26T10:01:38.339Z,66.03
2022-08-26T10:04:11.257Z,66.14
2022-08-26T10:06:55.309Z,66.05
2022-08-26T10:09:26.753Z,66.35
2022-08-26T10:12:01.609Z,66.35
2022-08-26T10:14:39.420Z,66.54
2022-08-26T10:17:16.226Z,66.29
2022-08-26T10:19:57.148Z,66.32
2022-08-26T10:22:36.673Z,66.42
2022-08-26T10:25:14.854Z,67.26
2022-08-26T10:27:53.449Z,67.80
2022-08-26T10:30:28.824Z,67.62
2022-08-26T10:33:04.617Z,67.80
2022-08-26T10:35:37.305Z,67.86
2022-08-26T10:38:14.484Z,67.43
2022-08-26T10:40:56.301Z,67.69
2022-08-26T10:43:29.768Z,68.19
2022-08-26T10:46:05.027Z,68.19
2022-08-26T10:48:44.944Z,68.49
2022-08-26T10:51:16.545Z,68.75
2022-08-26T10:53:58.396Z,69.22
2022-08-26T10:56:43.543Z,69.43
2022-08-26T10:59:25.093Z,69.79
2022-08-26T11:02:09.582Z,69.71
2022-08-26T11:04:52.187Z,69.45
2022-08-26T11:07:42.993Z,69.45
2022-08-26T11:10:57.910Z,69.91
2022-08-26T11:14:03.201Z,70.10
2022-08-26T11:16:43.436Z,70.06
2022-08-26T11:20:01.045Z,70.49
2022-08-26T11:22:34.939Z,70.54
2022-08-26T11:25:16.094Z,70.52
2022-08-26T11:27:59.786Z,70.14
2022-08-26T11:30:56.987Z,69.96
2022-08-26T11:34:01.032Z,69.89
2022-08-26T11:36:57.041Z,70.14
2022-08-26T11:39:38.385Z,70.30
2022-08-26T11:42:28.552Z,70.06
2022-08-26T11:44:59.860Z,69.64
2022-08-26T11:47:33.298Z,69.40
2022-08-26T11:50:15.802Z,69.14
2022-08-26T11:52:54.498Z,69.49
2022-08-26T11:55:24.710Z,69.71
2022-08-26T11:58:00.883Z,69.57
2022-08-26T12:00:34.623Z,69.32
2022-08-26T12:03:09.540Z,69.39
2022-08-26T12:05:46.325Z,69.32
2022-08-26T12:08:21.547Z,69.41
2022-08-26T12:10:50.775Z,69.63
2022-08-26T12:13:27.245Z,69.06
2022-08-26T12:15:59.242Z,68.21
2022-08-26T12:18:31.869Z,67.65
2022-08-26T12:21:12.316Z,67.73
2022-08-26T12:23:47.754Z,66.95
2022-08-26T12:26:28.272Z,66.28
2022-08-26T12:29:01.589Z,66.71
2022-08-26T12:31:46.708Z,66.26
2022-08-26T12:34:18.591Z,65.94
2022-08-26T12:36:50.450Z,65.67
2022-08-26T12:39:29.245Z,66.07
2022-08-26T12:41:59.982Z,65.32
2022-08-26T12:44:54.110Z,65.86
2022-08-26T12:47:39.030Z,65.56
2022-08-26T12:50:20.157Z,65.34
2022-08-26T12:53:01.607Z,65.10
2022-08-26T12:55:41.535Z,65.49
2022-08-26T12:58:27.349Z,65.09
2022-08-26T13:01:26.503Z,65.79
2022-08-26T13:03:59.140Z,65.89
2022-08-26T13:06:31.584Z,66.00
2022-08-26T13:09:06.322Z,66.45
2022-08-26T13:11:59.177Z,66.05
2022-08-26T13:14:29.342Z,64.99
2022-08-26T13:16:59.459Z,63.90
2022-08-26T13:19:29.655Z,63.87
2022-08-26T13:22:01.258Z,63.85
2022-08-26T13:24:35.774Z,64.57
2022-08-26T13:27:08.113Z,65.70
2022-08-26T13:29:37.635Z,65.14
2022-08-26T13:32:09.911Z,64.57
2022-08-26T13:34:39.645Z,63.75
2022-08-26T13:37:08.616Z,63.88
2022-08-26T13:39:38.175Z,63.67
2022-08-26T13:42:07.030Z,63.40
2022-08-26T13:44:36.051Z,63.06
2022-08-26T13:47:06.282Z,62.48
2022-08-26T13:49:34.981Z,62.27
2022-08-26T13:52:04.197Z,62.58
2022-08-26T13:54:33.409Z,62.26
2022-08-26T13:57:02.268Z,61.62
2022-08-26T13:59:30.886Z,62.19
2022-08-26T14:02:00.723Z,62.49
2022-08-26T14:04:30.881Z,62.62
2022-08-26T14:06:59.573Z,62.40
2022-08-26T14:09:28.235Z,62.21
2022-08-26T14:11:58.116Z,62.21
2022-08-26T14:14:27.982Z,62.82
2022-08-26T14:16:59.375Z,63.35
2022-08-26T14:19:32.585Z,63.59
2022-08-26T14:22:02.484Z,64.30
2022-08-26T14:24:31.333Z,64.43
2022-08-26T14:27:00.097Z,64.98
2022-08-26T14:29:28.818Z,64.71
2022-08-26T14:32:00.212Z,64.82
2022-08-26T14:34:30.378Z,65.02
2022-08-26T14:36:59.097Z,64.45
2022-08-26T14:39:37.225Z,64.17
2022-08-26T14:42:06.487Z,64.79
2022-08-26T14:44:35.588Z,64.65
2022-08-26T14:47:07.330Z,63.94
2022-08-26T14:49:37.872Z,63.70
2022-08-26T14:52:06.698Z,64.47
2022-08-26T14:54:34.442Z,64.03
2022-08-26T14:57:07.298Z,63.38
2022-08-26T14:59:38.890Z,64.01
2022-08-26T15:02:10.694Z,63.56
2022-08-26T15:04:44.091Z,62.72
2022-08-26T15:07:13.258Z,62.72
2022-08-26T15:09:42.029Z,62.64
2022-08-26T15:12:10.912Z,63.10
2022-08-26T15:14:39.653Z,61.38
2022-08-26T15:17:09.848Z,61.52
2022-08-26T15:19:38.800Z,62.01
2022-08-26T15:22:08.786Z,62.60
2022-08-26T15:24:37.901Z,63.04
2022-08-26T15:27:06.790Z,63.58
2022-08-26T15:29:36.321Z,63.89
2022-08-26T15:32:06.332Z,64.58
2022-08-26T15:34:35.016Z,64.64
2022-08-26T15:37:03.674Z,65.11
2022-08-26T15:39:35.585Z,65.67
2022-08-26T15:42:05.059Z,65.58
2022-08-26T15:44:34.199Z,65.86
2022-08-26T15:47:03.085Z,64.24
2022-08-26T15:49:33.051Z,65.07
2022-08-26T15:52:03.464Z,64.92
2022-08-26T15:54:35.658Z,64.62
2022-08-26T15:57:07.175Z,64.66
2022-08-26T15:59:38.484Z,64.73
2022-08-26T16:02:07.498Z,64.36
2022-08-26T16:04:36.301Z,64.09
2022-08-26T16:07:05.851Z,63.85
2022-08-26T16:09:36.415Z,64.56
2022-08-26T16:12:06.099Z,64.79
2022-08-26T16:14:35.319Z,64.95
2022-08-26T16:17:04.665Z,65.44
2022-08-26T16:19:33.606Z,65.72
2022-08-26T16:22:02.707Z,65.91
2022-08-26T16:24:31.861Z,66.40
2022-08-26T16:27:02.479Z,66.74
2022-08-26T16:29:33.003Z,66.65
2022-08-26T16:32:08.768Z,67.23
2022-08-26T16:34:37.881Z,67.20
2022-08-26T16:37:16.311Z,67.35
2022-08-26T16:39:45.362Z,67.58
2022-08-26T16:42:15.968Z,68.50
2022-08-26T16:44:47.534Z,68.52
2022-08-26T16:47:18.523Z,69.06
2022-08-26T16:49:47.833Z,69.37
2022-08-26T16:52:17.268Z,70.72
2022-08-26T16:54:46.518Z,72.28
2022-08-26T16:57:17.283Z,73.47
2022-08-26T16:59:46.551Z,74.01
2022-08-26T17:02:15.877Z,74.60
2022-08-26T17:04:47.137Z,74.94
2022-08-26T17:07:19.146Z,75.13
2022-08-26T17:09:48.151Z,75.59
2022-08-26T17:12:19.118Z,75.76
2022-08-26T17:14:48.330Z,76.24
2022-08-26T17:17:17.636Z,76.79
2022-08-26T17:19:47.465Z,77.07
2022-08-26T17:22:17.869Z,77.46
2022-08-26T17:24:47.528Z,77.52
2022-08-26T17:27:18.366Z,78.03
2022-08-26T17:29:47.801Z,78.29
2022-08-26T17:32:17.349Z,78.84
2022-08-26T17:34:46.718Z,78.84
2022-08-26T17:37:18.099Z,79.09
2022-08-26T17:39:47.460Z,79.37
2022-08-26T17:42:18.564Z,79.59
2022-08-26T17:44:51.400Z,79.96
2022-08-26T17:47:20.811Z,80.45
2022-08-26T17:49:50.272Z,80.52
2022-08-26T17:52:21.282Z,80.92
2022-08-26T17:54:53.645Z,81.02
2022-08-26T17:57:24.722Z,81.38
2022-08-26T17:59:54.404Z,81.57
2022-08-26T18:02:34.098Z,81.62
2022-08-26T18:05:03.487Z,81.71
2022-08-26T18:07:33.800Z,81.99
2022-08-26T18:10:16.846Z,82.52
2022-08-26T18:12:48.724Z,82.38
2022-08-26T18:15:21.380Z,82.57
2022-08-26T18:17:53.394Z,82.58
2022-08-26T18:20:23.110Z,82.81
2022-08-26T18:22:52.551Z,83.12
2022-08-26T18:25:22.103Z,83.14
2022-08-26T18:27:52.701Z,82.97
2022-08-26T18:30:23.907Z,82.89
2022-08-26T18:32:53.936Z,82.96
2022-08-26T18:35:23.365Z,83.17
2022-08-26T18:37:52.796Z,83.11
2022-08-26T18:40:22.551Z,83.25
2022-08-26T18:42:54.172Z,83.57
2022-08-26T18:45:24.555Z,83.61
2022-08-26T18:47:54.101Z,83.86
2022-08-26T18:50:23.732Z,83.79
2022-08-26T18:52:53.150Z,83.73
2022-08-26T18:55:23.167Z,83.65
2022-08-26T18:57:56.792Z,84.16
2022-08-26T19:00:26.685Z,83.76
2022-08-26T19:02:56.346Z,84.49
2022-08-26T19:05:26.169Z,84.67
2022-08-26T19:07:56.811Z,84.64
2022-08-26T19:10:26.389Z,84.56
2022-08-26T19:13:02.387Z,84.66
2022-08-26T19:15:32.114Z,84.84
2022-08-26T19:18:03.631Z,84.84
2022-08-26T19:20:33.129Z,84.92
2022-08-26T19:23:10.618Z,84.87
2022-08-26T19:25:54.730Z,85.17
2022-08-26T19:28:25.738Z,84.84
2022-08-26T19:30:57.169Z,85.21
2022-08-26T19:33:27.291Z,85.49
2022-08-26T19:35:56.920Z,85.18
2022-08-26T19:38:27.829Z,85.29
2022-08-26T19:40:58.807Z,85.46
2022-08-26T19:43:29.788Z,85.45
2022-08-26T19:46:11.015Z,85.49
2022-08-26T19:48:40.787Z,85.52
2022-08-26T19:51:10.355Z,85.78
2022-08-26T19:53:45.105Z,86.08
2022-08-26T19:56:15.321Z,86.16
2022-08-26T19:58:46.529Z,86.22
2022-08-26T20:01:17.023Z,86.40
2022-08-26T20:03:48.581Z,86.42
2022-08-26T20:06:20.331Z,86.54
2022-08-26T20:08:53.870Z,86.79
2022-08-26T20:11:26.861Z,86.84
2022-08-26T20:13:57.978Z,87.04
2022-08-26T20:16:27.484Z,87.04
2022-08-26T20:19:13.974Z,87.00
2022-08-26T20:21:44.395Z,87.01
2022-08-26T20:24:17.521Z,87.39
2022-08-26T20:26:47.451Z,87.30
2022-08-26T20:29:19.950Z,87.29
2022-08-26T20:31:54.796Z,87.53
2022-08-26T20:34:24.728Z,87.74
2022-08-26T20:36:56.887Z,87.65
2022-08-26T20:39:28.962Z,87.59
2022-08-26T20:41:59.122Z,87.76
2022-08-26T20:44:30.003Z,88.08
2022-08-26T20:47:00.358Z,88.19
2022-08-26T20:49:32.219Z,88.15
2022-08-26T20:52:06.707Z,88.05
2022-08-26T20:54:38.964Z,88.01
2022-08-26T20:57:07.872Z,87.96
2022-08-26T20:59:38.360Z,88.30
2022-08-26T21:02:07.226Z,88.31
2022-08-26T21:04:36.585Z,88.39
2022-08-26T21:07:05.867Z,88.45
2022-08-26T21:09:34.839Z,88.43
2022-08-26T21:12:04.194Z,88.71
2022-08-26T21:14:33.271Z,88.69
2022-08-26T21:17:04.004Z,88.46
2022-08-26T21:19:32.819Z,88.65
2022-08-26T21:22:01.743Z,89.05
2022-08-26T21:24:30.481Z,88.72
2022-08-26T21:26:59.329Z,88.64
2022-08-26T21:29:28.202Z,88.78
2022-08-26T21:31:57.582Z,88.44
2022-08-26T21:34:27.872Z,88.64
2022-08-26T21:36:56.929Z,88.58
2022-08-26T21:39:26.869Z,88.74
2022-08-26T21:41:55.638Z,88.70
2022-08-26T21:44:24.298Z,88.68
2022-08-26T21:46:53.782Z,88.47
2022-08-26T21:49:22.480Z,88.32
2022-08-26T21:51:55.431Z,88.07
2022-08-26T21:54:24.378Z,87.83
2022-08-26T21:56:53.336Z,87.72
2022-08-26T21:59:22.112Z,87.84
2022-08-26T22:01:51.312Z,88.09
2022-08-26T22:04:20.104Z,88.25
2022-08-26T22:06:52.004Z,88.35
2022-08-26T22:09:25.217Z,88.33
2022-08-26T22:11:56.929Z,88.50
2022-08-26T22:14:30.451Z,88.90
2022-08-26T22:17:02.590Z,89.01
2022-08-26T22:19:31.957Z,89.24
2022-08-26T22:22:03.725Z,89.33
2022-08-26T22:24:33.935Z,89.44
2022-08-26T22:27:02.737Z,89.53
2022-08-26T22:29:32.368Z,89.76
2022-08-26T22:32:02.268Z,89.62
2022-08-26T22:34:31.088Z,89.82
2022-08-26T22:36:59.843Z,89.86
2022-08-26T22:39:28.646Z,89.79
2022-08-26T22:41:58.923Z,89.92
2022-08-26T22:44:27.711Z,89.56
2022-08-26T22:46:57.004Z,89.03
2022-08-26T22:49:26.160Z,89.31
2022-08-26T22:51:54.967Z,89.14
2022-08-26T22:54:23.640Z,88.59
2022-08-26T22:56:52.364Z,88.34
2022-08-26T22:59:22.687Z,88.67
2022-08-26T23:01:51.787Z,88.72
2022-08-26T23:04:21.105Z,88.84
2022-08-26T23:06:49.893Z,89.08
2022-08-26T23:09:20.505Z,88.59
2022-08-26T23:11:50.914Z,88.87
2022-08-26T23:14:21.498Z,88.15
2022-08-26T23:16:50.765Z,87.89
2022-08-26T23:19:23.121Z,87.96
2022-08-26T23:21:52.174Z,87.86
2022-08-26T23:24:21.214Z,87.98
2022-08-26T23:26:50.094Z,87.94
2022-08-26T23:29:18.992Z,88.38
2022-08-26T23:31:49.248Z,88.30
2022-08-26T23:34:46.822Z,88.05
2022-08-26T23:37:16.933Z,88.30
2022-08-26T23:39:46.612Z,88.61
2022-08-26T23:42:15.517Z,88.45
2022-08-26T23:44:44.289Z,88.17
2022-08-26T23:47:15.243Z,88.21
2022-08-26T23:49:44.212Z,88.41
2022-08-26T23:52:30.794Z,88.33
2022-08-26T23:54:59.616Z,88.44
2022-08-26T23:57:28.351Z,88.38
2022-08-26T23:59:58.006Z,88.37
